Terminal Aerodrome Forecast
Issued by NWS

Current Version | Previous Version | Text Only | Print | Product List | Glossary Off
Versions: 1 2 3 4 5 6 7 8 9 10 11 12 13 14 15 16 17 18 19 20 21 22 23

000
FTUS41 KILN 271600 AAC
TAFLCK
TAF AMD
KLCK 271611Z 2716/2812 32012KT P6SM OVC015
      TEMPO 2716/2718 4SM -SHSN BR
     FM280100 29008KT P6SM OVC025=

USA.gov is the U.S. government's official web portal to all federal, state and local government web resources and services.